Time;durP1;ratioP1;P1;durP2;ratioP2;P2;SDS_P1;SDS_P2;PMS_P1;PMS_P2;Temp;Humidity;BMP_temperature;BMP_pressure;BME280_temperature;BME280_humidity;BME280_pressure;Samples;Min_cycle;Max_cycle;Signal;HPM_P1;HPM_P2
2023/09/26 00:00:56;;;;;;;5.30;2.58;;;;;;;21.67;59.24;99915.06;4934239;29;20031;-86
2023/09/26 00:03:21;;;;;;;2.78;2.17;;;;;;;21.57;59.36;99890.56;4935197;29;20032;-87
2023/09/26 00:05:48;;;;;;;2.67;1.65;;;;;;;21.45;59.21;99891.25;4945915;29;20044;-87
2023/09/26 00:08:14;;;;;;;3.10;2.17;;;;;;;21.40;59.24;99899.56;4952752;29;20047;-87
2023/09/26 00:10:40;;;;;;;9.27;2.15;;;;;;;21.58;58.86;99883.38;4953241;29;20078;-86
2023/09/26 00:13:05;;;;;;;3.65;2.38;;;;;;;21.56;58.56;99888.84;4952114;29;20089;-86
2023/09/26 00:15:31;;;;;;;6.53;3.08;;;;;;;21.57;58.96;99893.25;4934887;29;20066;-86
2023/09/26 00:17:57;;;;;;;9.43;2.53;;;;;;;21.54;59.75;99906.00;4933638;29;20038;-86
2023/09/26 00:20:30;;;;;;;3.42;1.88;;;;;;;21.33;60.31;99913.41;4952566;29;20169;-86
2023/09/26 00:22:56;;;;;;;9.13;2.58;;;;;;;21.30;60.24;99882.25;4952889;29;20166;-85
2023/09/26 00:25:23;;;;;;;4.22;2.22;;;;;;;21.44;60.03;99903.81;4923755;29;20035;-85
2023/09/26 00:27:49;;;;;;;6.80;2.83;;;;;;;21.22;60.11;99880.00;4933652;29;20066;-87
2023/09/26 00:30:15;;;;;;;5.95;3.30;;;;;;;21.34;60.32;99907.97;4933312;29;20036;-86
2023/09/26 00:32:41;;;;;;;9.30;3.83;;;;;;;21.41;60.24;99912.03;4933737;29;20520;-86
2023/09/26 00:35:13;;;;;;;9.18;2.60;;;;;;;21.15;60.51;99883.09;4934715;29;20035;-86
2023/09/26 00:37:42;;;;;;;5.45;2.75;;;;;;;21.20;60.81;99906.03;4933901;29;20027;-88
2023/09/26 00:40:18;;;;;;;5.20;1.83;;;;;;;21.11;61.05;99906.56;4933209;29;20032;-89
2023/09/26 00:42:45;;;;;;;9.60;2.28;;;;;;;21.00;60.90;99866.06;4933817;29;20119;-89
2023/09/26 00:45:11;;;;;;;3.08;1.95;;;;;;;21.44;60.86;99933.31;4916558;29;20108;-87
2023/09/26 00:47:39;;;;;;;2.55;1.23;;;;;;;21.41;60.90;99948.72;4934420;29;20035;-87
2023/09/26 00:50:12;;;;;;;7.50;2.92;;;;;;;21.31;60.96;99931.41;4932947;29;20135;-88
2023/09/26 00:52:39;;;;;;;3.90;2.03;;;;;;;21.04;61.11;99889.09;4932790;29;20059;-88
2023/09/26 00:55:05;;;;;;;3.67;1.95;;;;;;;21.22;61.14;99932.78;4933458;29;20079;-87
2023/09/26 00:57:35;;;;;;;6.68;3.42;;;;;;;21.25;61.47;99938.84;4934688;29;20513;-87
2023/09/26 01:00:02;;;;;;;6.80;3.63;;;;;;;21.14;61.51;99910.91;4933308;29;20412;-88
2023/09/26 01:02:27;;;;;;;3.25;2.03;;;;;;;20.98;61.84;99909.06;4916024;29;20434;-87
2023/09/26 01:04:54;;;;;;;6.68;2.88;;;;;;;21.14;61.64;99930.53;4932997;29;20032;-88
2023/09/26 01:07:21;;;;;;;4.50;2.45;;;;;;;20.96;61.74;99908.28;4933718;29;20570;-88
2023/09/26 01:09:47;;;;;;;8.13;2.80;;;;;;;21.21;61.57;99917.63;4933391;29;20115;-88
2023/09/26 01:12:13;;;;;;;8.65;3.17;;;;;;;20.87;62.05;99903.44;4932793;29;20122;-87
2023/09/26 01:14:39;;;;;;;3.97;2.72;;;;;;;20.80;62.58;99916.28;4933285;29;20082;-87
2023/09/26 01:17:04;;;;;;;7.43;3.13;;;;;;;20.92;62.01;99904.03;4915808;29;20032;-88
2023/09/26 01:19:30;;;;;;;3.47;2.60;;;;;;;21.32;61.91;99951.91;4946285;29;20046;-87
2023/09/26 01:21:55;;;;;;;5.47;3.28;;;;;;;21.14;62.28;99945.75;4951979;29;20106;-87
2023/09/26 01:24:21;;;;;;;6.30;2.55;;;;;;;20.95;62.28;99919.09;4952369;29;20423;-87
2023/09/26 01:26:47;;;;;;;6.30;2.63;;;;;;;20.65;62.66;99890.31;4952523;29;20027;-88
2023/09/26 01:29:12;;;;;;;8.65;2.35;;;;;;;21.07;62.45;99956.81;4950428;29;20031;-88
2023/09/26 01:31:38;;;;;;;8.98;2.75;;;;;;;20.91;62.66;99915.69;4952374;29;20055;-88
2023/09/26 01:34:04;;;;;;;3.72;2.53;;;;;;;20.84;62.77;99900.91;4934422;29;20082;-88
2023/09/26 01:36:30;;;;;;;4.40;1.85;;;;;;;20.87;62.42;99914.16;4951892;29;20108;-87
2023/09/26 01:39:01;;;;;;;6.18;2.60;;;;;;;21.08;62.96;99976.47;4951876;29;20443;-86
2023/09/26 01:41:27;;;;;;;2.80;1.70;;;;;;;20.74;62.90;99901.41;4950902;29;20042;-87
2023/09/26 01:45:03;;;;;;;;;;;;;;;;;;;;;
2023/09/26 01:48:12;;;;;;;;;;;;;;;;;;;;;
2023/09/26 01:50:39;;;;;;;6.65;3.08;;;;;;;20.95;62.62;99927.16;4856548;29;20044;-87
2023/09/26 01:53:04;;;;;;;4.80;2.97;;;;;;;20.69;63.17;99891.88;4878494;29;20512;-88
2023/09/26 01:55:30;;;;;;;4.55;2.70;;;;;;;20.80;63.14;99927.00;4895308;29;20033;-88
2023/09/26 01:57:56;;;;;;;2.33;2.08;;;;;;;21.01;63.21;99959.00;4892171;29;20135;-87
2023/09/26 02:00:29;;;;;;;5.10;3.38;;;;;;;20.51;63.56;99874.94;4893050;29;20077;-88
2023/09/26 02:03:03;;;;;;;6.15;2.20;;;;;;;21.04;62.87;99911.41;4894885;29;20047;-88
2023/09/26 02:05:29;;;;;;;4.43;2.22;;;;;;;20.81;62.43;99898.41;4896650;29;20101;-86
2023/09/26 02:07:54;;;;;;;4.13;3.03;;;;;;;20.78;62.57;99918.19;4896257;29;20040;-86
2023/09/26 02:10:20;;;;;;;8.32;3.50;;;;;;;20.75;62.78;99903.13;4880666;29;20067;-86
2023/09/26 02:12:51;;;;;;;3.90;2.47;;;;;;;20.96;62.39;99915.44;4880713;29;20424;-88
2023/09/26 02:15:22;;;;;;;9.77;3.25;;;;;;;20.82;61.05;99902.78;4896495;29;20056;-88
2023/09/26 02:18:26;;;;;;;8.13;3.17;;;;;;;20.73;61.04;99890.78;4896245;29;20520;-89
2023/09/26 02:21:20;;;;;;;8.95;3.60;;;;;;;21.38;60.46;99975.72;4881032;29;20093;-89
2023/09/26 02:23:46;;;;;;;20.40;3.03;;;;;;;20.83;60.19;99909.91;4908057;29;20421;-87
2023/09/26 02:26:17;;;;;;;2.60;2.00;;;;;;;20.81;59.97;99891.22;4935966;29;20032;-87
2023/09/26 02:28:53;;;;;;;3.47;2.72;;;;;;;21.00;60.57;99911.66;4919014;29;20454;-88
2023/09/26 02:31:19;;;;;;;4.00;2.65;;;;;;;20.86;61.22;99902.53;4936327;29;20052;-86
2023/09/26 02:33:45;;;;;;;2.80;1.95;;;;;;;21.36;61.24;99983.00;4936316;29;20125;-86
2023/09/26 02:36:10;;;;;;;17.52;3.92;;;;;;;21.02;61.26;99941.94;4935835;29;20063;-88
2023/09/26 02:38:36;;;;;;;10.15;2.10;;;;;;;21.07;61.30;99939.88;4936701;29;20405;-86
2023/09/26 02:41:01;;;;;;;4.80;2.70;;;;;;;20.80;61.76;99915.44;4935734;29;20102;-87
2023/09/26 02:43:27;;;;;;;4.72;2.28;;;;;;;20.90;61.67;99922.88;4918695;29;20061;-86
2023/09/26 02:45:52;;;;;;;4.90;2.40;;;;;;;20.89;62.27;99921.13;4936994;29;20049;-87
2023/09/26 02:48:18;;;;;;;3.58;2.47;;;;;;;20.99;62.28;99921.53;4948880;29;20030;-87
2023/09/26 02:50:43;;;;;;;12.60;2.50;;;;;;;20.84;62.57;99925.03;4935784;29;20559;-87
2023/09/26 02:53:09;;;;;;;4.72;3.17;;;;;;;20.78;62.78;99931.59;4935701;29;20024;-86
2023/09/26 02:55:40;;;;;;;4.07;3.58;;;;;;;20.68;62.97;99912.47;4948238;29;20046;-87
2023/09/26 02:58:06;;;;;;;9.15;2.25;;;;;;;20.79;63.06;99933.34;4975794;29;21629;-87
2023/09/26 03:00:31;;;;;;;4.72;2.40;;;;;;;20.63;62.62;99910.94;4978847;28;20118;-86
2023/09/26 03:02:57;;;;;;;3.45;2.28;;;;;;;20.84;62.65;99933.09;4978622;29;20023;-89
2023/09/26 03:05:22;;;;;;;3.85;2.83;;;;;;;21.08;62.31;99982.69;4977688;29;20508;-87
2023/09/26 03:07:56;;;;;;;4.45;2.83;;;;;;;20.73;62.53;99936.34;4963160;29;20036;-89
2023/09/26 03:10:24;;;;;;;3.85;2.75;;;;;;;20.50;62.50;99927.66;4944481;29;20119;-88
2023/09/26 03:12:49;;;;;;;7.15;3.60;;;;;;;20.29;62.69;99886.78;4940540;29;20039;-84
2023/09/26 03:15:15;;;;;;;6.70;3.63;;;;;;;20.46;62.45;99930.59;4939801;29;20058;-86
2023/09/26 03:18:09;;;;;;;7.20;2.85;;;;;;;20.36;62.66;99920.34;4974285;29;20123;-88
2023/09/26 03:21:11;;;;;;;3.95;2.78;;;;;;;20.30;63.00;99926.03;4977699;29;20072;-86
2023/09/26 03:23:36;;;;;;;6.53;4.20;;;;;;;20.27;63.32;99933.34;4978282;29;20039;-86
2023/09/26 03:26:20;;;;;;;11.35;3.90;;;;;;;20.09;63.61;99916.41;4973550;29;20051;-87
2023/09/26 03:28:56;;;;;;;14.68;5.88;;;;;;;20.30;63.55;99938.56;4968822;29;20038;-87
2023/09/26 03:31:25;;;;;;;7.68;4.40;;;;;;;20.10;63.79;99927.03;4969837;29;20050;-86
2023/09/26 03:34:13;;;;;;;7.15;4.75;;;;;;;20.24;64.65;99958.47;4965655;29;20039;-88
2023/09/26 03:36:38;;;;;;;6.55;4.20;;;;;;;19.93;64.57;99927.03;4930514;29;20126;-86
2023/09/26 03:39:04;;;;;;;5.80;4.88;;;;;;;19.93;65.60;99957.34;4942744;29;20200;-84
2023/09/26 03:41:31;;;;;;;7.05;3.25;;;;;;;19.78;65.58;99923.31;4935021;29;20039;-84
2023/09/26 03:43:56;;;;;;;13.60;3.13;;;;;;;20.01;65.41;99956.97;4934504;29;20482;-82
2023/09/26 03:46:22;;;;;;;9.73;4.65;;;;;;;19.88;65.75;99937.09;4934988;29;20038;-85
2023/09/26 03:48:48;;;;;;;7.50;4.30;;;;;;;19.80;66.02;99941.03;4935405;29;20038;-85
2023/09/26 03:51:15;;;;;;;6.07;3.65;;;;;;;19.81;65.43;99904.41;4919651;29;20058;-85
2023/09/26 03:53:41;;;;;;;5.03;2.67;;;;;;;19.93;65.85;99925.22;4934840;29;20042;-84
2023/09/26 03:56:08;;;;;;;4.57;2.53;;;;;;;19.97;65.55;99920.56;4934185;29;20034;-83
2023/09/26 03:58:35;;;;;;;3.60;2.97;;;;;;;19.98;65.41;99922.31;4936089;29;20032;-83
2023/09/26 04:01:26;;;;;;;5.75;4.40;;;;;;;20.15;65.35;99956.25;4947740;29;20031;-82
2023/09/26 04:03:53;;;;;;;4.22;3.03;;;;;;;20.02;65.49;99943.50;4931433;29;20530;-82
2023/09/26 04:06:18;;;;;;;5.95;3.55;;;;;;;20.09;65.38;99937.81;4933475;29;20038;-84
2023/09/26 04:08:44;;;;;;;8.07;3.53;;;;;;;20.13;65.23;99950.97;4936965;29;20039;-84
2023/09/26 04:11:16;;;;;;;8.38;3.88;;;;;;;19.94;65.75;99947.47;4940517;29;20043;-84
2023/09/26 04:13:43;;;;;;;5.43;3.38;;;;;;;19.76;65.86;99927.84;4933912;29;20106;-84
2023/09/26 04:16:11;;;;;;;6.05;3.70;;;;;;;20.08;66.02;99977.13;4933481;29;20042;-84
2023/09/26 04:18:37;;;;;;;9.77;3.00;;;;;;;19.93;66.01;99937.75;4933952;29;20032;-83
2023/09/26 04:21:06;;;;;;;9.27;5.20;;;;;;;20.42;65.84;100004.00;4941945;29;20122;-83
2023/09/26 04:23:32;;;;;;;4.38;3.40;;;;;;;19.99;65.81;99970.41;4937066;28;20082;-82
2023/09/26 04:25:58;;;;;;;5.68;2.90;;;;;;;20.25;66.12;100002.19;4933146;29;20421;-83
2023/09/26 04:28:24;;;;;;;16.40;4.78;;;;;;;19.78;66.32;99956.28;4932335;29;20036;-83
2023/09/26 04:30:49;;;;;;;8.23;4.60;;;;;;;19.74;65.77;99930.59;4947485;29;20466;-82
2023/09/26 04:33:15;;;;;;;16.98;4.45;;;;;;;19.98;65.67;99955.28;4952707;29;20110;-82
2023/09/26 04:35:41;;;;;;;6.60;4.18;;;;;;;19.90;66.18;99967.34;4940549;29;20039;-83
2023/09/26 04:38:06;;;;;;;26.00;4.70;;;;;;;19.96;65.85;99972.38;4933435;29;20123;-83
2023/09/26 04:40:33;;;;;;;3.72;2.78;;;;;;;19.73;66.31;99944.06;4933799;29;20032;-83
2023/09/26 04:43:03;;;;;;;8.02;4.07;;;;;;;19.81;65.60;99936.53;4936747;29;20447;-85
2023/09/26 04:45:32;;;;;;;4.88;3.15;;;;;;;19.89;65.57;99939.69;4942897;29;20122;-83
2023/09/26 04:48:01;;;;;;;6.88;4.25;;;;;;;20.29;65.72;100001.94;4941863;29;20458;-85
2023/09/26 04:50:28;;;;;;;4.90;3.30;;;;;;;20.01;65.54;99965.84;4936321;29;20054;-85
2023/09/26 04:52:54;;;;;;;8.68;2.45;;;;;;;19.91;66.02;99963.69;4932926;29;20027;-85
2023/09/26 04:55:20;;;;;;;6.30;3.40;;;;;;;20.04;66.25;99997.81;4933836;29;20031;-84
2023/09/26 04:57:45;;;;;;;15.50;4.60;;;;;;;19.91;65.86;99961.91;4933112;29;20027;-85
2023/09/26 05:00:17;;;;;;;6.30;4.72;;;;;;;20.08;65.51;99958.41;4934325;29;20032;-87
2023/09/26 05:02:44;;;;;;;7.28;3.80;;;;;;;20.43;65.92;100029.88;4930018;29;20028;-84
2023/09/26 05:05:10;;;;;;;4.70;4.03;;;;;;;19.93;65.36;99948.44;4932384;29;20108;-84
2023/09/26 05:07:37;;;;;;;4.30;2.88;;;;;;;19.99;65.38;99950.81;4933253;29;20083;-84
2023/09/26 05:10:03;;;;;;;7.10;2.75;;;;;;;20.07;65.29;99971.84;4932914;29;20102;-84
2023/09/26 05:12:29;;;;;;;7.25;2.92;;;;;;;20.17;65.45;99957.94;4932743;29;20028;-84
2023/09/26 05:14:55;;;;;;;6.38;4.30;;;;;;;20.18;64.48;99981.06;4932867;29;20524;-83
2023/09/26 05:17:24;;;;;;;9.88;3.33;;;;;;;20.39;64.26;99987.16;4915933;29;20499;-84
2023/09/26 05:19:50;;;;;;;8.30;3.83;;;;;;;20.19;64.76;99996.19;4933014;29;20056;-84
2023/09/26 05:22:17;;;;;;;14.25;3.10;;;;;;;20.31;64.39;99996.53;4932886;29;20518;-84
2023/09/26 05:24:43;;;;;;;9.10;2.42;;;;;;;20.30;64.07;99994.81;4932523;29;20028;-85
2023/09/26 05:27:08;;;;;;;4.50;2.95;;;;;;;20.52;64.40;100008.81;4933127;29;20442;-85
2023/09/26 05:29:35;;;;;;;16.45;4.60;;;;;;;20.88;63.85;100050.81;4932886;29;20090;-84
2023/09/26 05:32:01;;;;;;;5.90;3.25;;;;;;;20.68;63.26;99990.19;4932740;29;20051;-84
2023/09/26 05:34:27;;;;;;;4.30;3.35;;;;;;;20.76;63.28;99995.16;4933647;29;20039;-85
2023/09/26 05:36:52;;;;;;;9.27;3.65;;;;;;;20.79;62.82;99992.31;4937370;29;20123;-84
2023/09/26 05:39:18;;;;;;;9.60;4.40;;;;;;;20.70;62.88;99963.31;4939078;29;20487;-86
2023/09/26 05:41:43;;;;;;;25.63;5.35;;;;;;;21.09;62.81;100005.88;4939035;29;20491;-85
2023/09/26 05:44:11;;;;;;;4.80;2.80;;;;;;;21.02;61.65;99999.13;4922320;29;20084;-84
2023/09/26 05:46:36;;;;;;;3.53;2.60;;;;;;;20.91;61.90;99953.22;4938803;29;20024;-84
2023/09/26 05:49:02;;;;;;;5.68;3.22;;;;;;;21.08;61.47;99973.78;4939444;29;20028;-85
2023/09/26 05:51:27;;;;;;;5.85;4.05;;;;;;;21.03;61.48;99975.84;4939695;29;20035;-84
2023/09/26 05:53:53;;;;;;;7.55;3.47;;;;;;;20.98;61.62;99977.91;4939265;29;20040;-85
2023/09/26 05:56:18;;;;;;;6.32;3.30;;;;;;;21.54;61.07;100019.56;4939405;29;20032;-87
2023/09/26 05:58:46;;;;;;;4.65;2.92;;;;;;;21.46;60.28;99989.59;4939186;29;20063;-85
2023/09/26 06:01:12;;;;;;;8.43;4.22;;;;;;;21.62;59.44;99992.31;4939031;29;20507;-85
2023/09/26 06:03:37;;;;;;;4.85;3.22;;;;;;;21.76;58.29;99995.06;4938945;29;20034;-86
2023/09/26 06:06:03;;;;;;;3.95;2.58;;;;;;;21.89;58.12;100000.63;4939115;29;20123;-86
2023/09/26 06:08:29;;;;;;;3.92;2.80;;;;;;;21.91;58.56;99952.22;4938725;29;20031;-83
2023/09/26 06:10:55;;;;;;;6.28;1.52;;;;;;;22.33;57.03;99996.34;4922056;29;20501;-87
2023/09/26 06:13:21;;;;;;;2.40;1.63;;;;;;;22.67;56.05;99984.41;4939034;29;20038;-87
2023/09/26 06:15:46;;;;;;;5.65;4.28;;;;;;;22.95;55.36;99987.25;4938725;29;20032;-87
2023/09/26 06:18:12;;;;;;;4.60;1.80;;;;;;;22.75;55.50;100008.16;4939251;29;20028;-87
2023/09/26 06:20:38;;;;;;;4.57;2.65;;;;;;;22.96;55.12;100011.34;4938859;29;20047;-87
2023/09/26 06:23:04;;;;;;;7.30;2.28;;;;;;;22.73;55.93;99988.56;4921405;29;20028;-87
2023/09/26 06:25:29;;;;;;;5.68;2.50;;;;;;;22.28;56.25;99984.97;4938800;29;20043;-86
2023/09/26 06:27:55;;;;;;;6.65;2.75;;;;;;;22.60;56.55;100049.41;4921922;29;20122;-86
2023/09/26 06:30:21;;;;;;;4.32;2.53;;;;;;;22.59;56.04;99984.03;4938039;29;20040;-87
2023/09/26 06:32:46;;;;;;;6.57;3.75;;;;;;;22.78;56.12;100007.97;4921749;29;20032;-86
2023/09/26 06:35:13;;;;;;;2.83;2.22;;;;;;;22.91;56.26;100031.41;4938840;29;20443;-87
2023/09/26 06:37:38;;;;;;;3.92;2.42;;;;;;;22.81;55.95;99998.84;4938736;29;20038;-87
2023/09/26 06:40:05;;;;;;;2.33;2.05;;;;;;;23.52;54.88;100059.06;4938710;29;20122;-87
2023/09/26 06:42:31;;;;;;;10.00;3.10;;;;;;;23.69;54.66;100061.56;4921834;29;20062;-87
2023/09/26 06:44:57;;;;;;;3.15;2.20;;;;;;;23.73;54.37;100006.53;4938533;29;20040;-87
2023/09/26 06:47:24;;;;;;;4.40;3.05;;;;;;;23.76;53.46;100002.78;4937420;29;20091;-86
2023/09/26 06:49:49;;;;;;;4.22;2.05;;;;;;;23.52;53.92;99986.41;4936009;29;20035;-86
2023/09/26 06:52:15;;;;;;;5.78;2.60;;;;;;;23.61;54.16;100012.72;4935637;29;20509;-86
2023/09/26 06:54:41;;;;;;;9.20;2.92;;;;;;;23.44;54.64;100027.25;4935683;29;20031;-87
2023/09/26 06:57:08;;;;;;;4.07;2.53;;;;;;;23.50;53.99;100026.88;4935133;29;20082;-86
2023/09/26 06:59:35;;;;;;;7.78;3.00;;;;;;;23.47;53.88;100023.53;4935367;29;20031;-86
2023/09/26 07:02:00;;;;;;;6.20;3.70;;;;;;;23.25;55.56;100008.72;4935468;29;20128;-86
2023/09/26 07:04:26;;;;;;;9.50;4.43;;;;;;;23.47;55.20;100023.53;4935372;29;20040;-87
2023/09/26 07:06:51;;;;;;;6.63;3.08;;;;;;;23.72;55.02;100042.50;4934923;29;20092;-87
2023/09/26 07:09:17;;;;;;;13.10;2.83;;;;;;;23.87;53.96;100040.69;4935400;29;20508;-86
2023/09/26 07:11:42;;;;;;;4.05;2.83;;;;;;;23.60;54.13;100006.47;4918215;29;20031;-85
2023/09/26 07:14:08;;;;;;;3.60;2.42;;;;;;;23.97;53.84;100048.19;4934999;29;20495;-85
2023/09/26 07:16:34;;;;;;;5.50;3.75;;;;;;;23.95;53.04;100010.56;4918604;29;20031;-85
2023/09/26 07:19:00;;;;;;;3.05;1.77;;;;;;;24.08;52.18;100030.34;4935168;29;20039;-85
2023/09/26 07:21:26;;;;;;;4.95;2.95;;;;;;;24.19;51.56;100028.75;4934864;29;20095;-84
2023/09/26 07:23:51;;;;;;;2.53;1.92;;;;;;;24.41;51.28;100020.13;4934796;29;20499;-86
2023/09/26 07:26:18;;;;;;;8.60;2.72;;;;;;;24.71;50.73;100010.91;4917714;29;20036;-84
2023/09/26 07:28:44;;;;;;;3.88;2.00;;;;;;;25.22;48.12;100034.38;4934477;29;20051;-84
2023/09/26 07:31:12;;;;;;;3.17;1.95;;;;;;;25.44;46.89;100018.41;4935193;29;20511;-86
2023/09/26 07:33:38;;;;;;;10.73;3.85;;;;;;;25.97;47.55;100018.16;4934683;29;20039;-86
2023/09/26 07:36:04;;;;;;;3.00;2.00;;;;;;;26.21;45.27;100028.13;4934930;29;20036;-85
2023/09/26 07:38:31;;;;;;;10.85;4.00;;;;;;;26.15;44.94;100029.47;4934962;29;20042;-85
2023/09/26 07:40:57;;;;;;;9.85;3.95;;;;;;;26.69;44.43;100035.34;4917137;29;20028;-86
2023/09/26 07:43:29;;;;;;;5.70;2.70;;;;;;;27.12;43.09;100032.00;4917791;29;20419;-86
2023/09/26 07:45:57;;;;;;;4.60;2.58;;;;;;;27.03;42.25;99982.16;4934884;29;20031;-86
2023/09/26 07:48:24;;;;;;;9.93;2.45;;;;;;;27.04;44.49;100010.94;4934495;29;20525;-87
2023/09/26 07:50:49;;;;;;;4.90;2.33;;;;;;;27.21;41.51;99997.94;4934123;29;20510;-86
2023/09/26 07:53:15;;;;;;;7.15;2.33;;;;;;;27.46;41.52;99994.13;4934434;29;20036;-86
2023/09/26 07:55:41;;;;;;;3.38;1.13;;;;;;;27.55;41.02;100044.00;4934406;29;20035;-85
2023/09/26 07:58:07;;;;;;;5.88;1.73;;;;;;;27.86;41.06;100018.81;4934939;29;20043;-87
2023/09/26 08:00:34;;;;;;;3.85;1.95;;;;;;;28.25;40.44;100026.50;4933057;29;20426;-85
2023/09/26 08:02:59;;;;;;;4.40;2.08;;;;;;;28.18;39.81;100009.03;4934385;29;20032;-84
2023/09/26 08:05:25;;;;;;;18.80;2.78;;;;;;;28.22;39.87;99980.66;4933998;29;20036;-84
2023/09/26 08:07:52;;;;;;;4.85;1.73;;;;;;;28.69;38.69;100031.91;4934308;29;20032;-85
2023/09/26 08:10:17;;;;;;;8.15;1.65;;;;;;;28.35;38.87;99999.50;4933787;29;20165;-84
2023/09/26 08:12:43;;;;;;;3.42;1.90;;;;;;;28.49;39.39;100020.00;4934136;29;20085;-85
2023/09/26 08:15:09;;;;;;;6.43;2.70;;;;;;;28.78;39.48;100014.84;4934292;29;20099;-85
2023/09/26 08:17:34;;;;;;;10.10;1.35;;;;;;;28.49;38.36;99952.19;4934122;29;20043;-84
2023/09/26 08:20:00;;;;;;;7.43;2.38;;;;;;;28.78;38.21;100006.69;4933839;29;20054;-84
2023/09/26 08:22:25;;;;;;;2.80;1.77;;;;;;;28.59;39.11;99996.53;4933769;29;20036;-84
2023/09/26 08:24:51;;;;;;;10.55;2.35;;;;;;;28.52;39.11;100017.88;4933638;29;20121;-85
2023/09/26 08:27:17;;;;;;;10.38;2.45;;;;;;;27.85;39.89;99972.88;4933862;29;20477;-86
2023/09/26 08:29:42;;;;;;;7.50;2.38;;;;;;;27.46;40.50;99989.56;4916987;29;20417;-83
2023/09/26 08:32:09;;;;;;;4.47;3.03;;;;;;;27.95;40.13;99963.03;4933936;29;20050;-83
2023/09/26 08:34:35;;;;;;;4.25;2.03;;;;;;;28.54;39.77;99987.91;4933643;29;20130;-83
2023/09/26 08:37:00;;;;;;;6.07;2.50;;;;;;;28.33;39.62;99972.50;4933786;29;20682;-82
2023/09/26 08:39:26;;;;;;;3.40;1.55;;;;;;;28.32;39.57;99986.19;4933453;29;20027;-83
2023/09/26 08:41:52;;;;;;;3.75;2.03;;;;;;;28.07;39.31;99987.38;4933507;29;20035;-83
2023/09/26 08:44:18;;;;;;;2.70;1.63;;;;;;;27.70;40.18;99996.69;4933356;29;20127;-83
2023/09/26 08:46:45;;;;;;;4.20;2.20;;;;;;;27.29;40.61;99993.59;4933625;29;20118;-84
2023/09/26 08:49:10;;;;;;;7.75;3.00;;;;;;;27.12;40.89;99996.81;4933415;29;20043;-83
2023/09/26 08:51:37;;;;;;;3.88;1.90;;;;;;;27.17;40.83;99959.38;4933265;29;20020;-83
2023/09/26 08:54:03;;;;;;;9.07;1.55;;;;;;;27.51;41.29;100005.44;4933008;29;20036;-84
2023/09/26 08:56:31;;;;;;;10.65;2.50;;;;;;;27.48;40.47;99993.03;4933363;29;20518;-83
2023/09/26 08:58:59;;;;;;;3.83;1.98;;;;;;;27.50;40.53;99998.31;4933189;29;20407;-84
2023/09/26 09:01:25;;;;;;;9.50;1.85;;;;;;;27.69;40.31;99957.03;4933558;29;20028;-83
2023/09/26 09:03:50;;;;;;;8.30;1.77;;;;;;;28.12;38.85;99961.59;4933709;29;20058;-83
2023/09/26 09:06:16;;;;;;;6.88;2.08;;;;;;;28.38;38.43;99983.81;4915886;29;20489;-85
2023/09/26 09:08:41;;;;;;;15.73;1.95;;;;;;;28.30;38.36;99980.91;4932915;29;20042;-86
2023/09/26 09:11:07;;;;;;;8.98;1.83;;;;;;;28.07;39.39;99965.69;4933000;29;20028;-85
2023/09/26 09:13:38;;;;;;;3.45;2.40;;;;;;;27.92;39.45;99971.38;4933600;29;20111;-85
2023/09/26 09:16:09;;;;;;;5.60;2.63;;;;;;;28.18;39.55;100034.31;4933333;29;20038;-85
2023/09/26 09:18:35;;;;;;;6.47;3.53;;;;;;;27.63;40.28;99996.31;4933337;29;20477;-84
2023/09/26 09:21:00;;;;;;;3.25;1.48;;;;;;;27.66;40.41;99966.25;4932979;29;20115;-85
2023/09/26 09:23:26;;;;;;;10.45;1.35;;;;;;;27.80;39.50;99981.38;4932978;29;20067;-84
2023/09/26 09:25:51;;;;;;;2.55;2.05;;;;;;;27.69;39.11;99941.63;4933009;29;20038;-85
2023/09/26 09:28:20;;;;;;;1.88;1.65;;;;;;;27.71;39.15;99944.19;4933356;29;20031;-89
2023/09/26 09:30:46;;;;;;;4.15;2.33;;;;;;;27.61;40.00;99965.78;4915768;29;20471;-88
2023/09/26 09:33:16;;;;;;;5.05;1.17;;;;;;;28.10;39.49;99989.81;4933238;29;20031;-87
2023/09/26 09:35:55;;;;;;;4.82;2.72;;;;;;;27.80;39.46;99940.72;4932928;29;20042;-93
2023/09/26 09:38:21;;;;;;;2.55;1.52;;;;;;;27.81;39.54;99999.38;4932944;29;20032;-86
2023/09/26 09:40:47;;;;;;;4.65;2.28;;;;;;;27.85;39.15;99962.91;4933180;29;20046;-88
2023/09/26 09:43:13;;;;;;;4.93;2.58;;;;;;;28.02;39.27;100002.19;4933387;29;20028;-87
2023/09/26 09:45:42;;;;;;;13.00;3.05;;;;;;;27.47;39.83;99944.41;4933256;29;20086;-87
2023/09/26 09:48:09;;;;;;;5.30;1.95;;;;;;;27.62;39.96;99947.69;4932970;29;20031;-87
2023/09/26 09:50:38;;;;;;;3.17;1.85;;;;;;;27.79;40.21;99970.66;4933047;29;20567;-86
2023/09/26 09:53:05;;;;;;;16.38;2.38;;;;;;;27.57;40.47;99985.13;4933062;29;20042;-87
2023/09/26 09:55:38;;;;;;;2.42;2.20;;;;;;;27.39;40.32;99953.16;4932751;29;20032;-86
2023/09/26 09:58:08;;;;;;;3.03;1.90;;;;;;;27.73;39.77;99925.09;4932521;29;20117;-87
2023/09/26 10:00:37;;;;;;;10.43;1.90;;;;;;;27.86;39.43;99948.34;4932446;29;20035;-87
2023/09/26 10:03:04;;;;;;;2.67;1.58;;;;;;;27.99;39.74;99955.47;4932511;29;20082;-85
2023/09/26 10:05:30;;;;;;;2.60;2.38;;;;;;;27.83;39.05;99921.50;4932684;29;20415;-86
2023/09/26 10:07:58;;;;;;;4.93;3.30;;;;;;;28.16;38.73;99932.38;4932621;29;20050;-86
2023/09/26 10:10:25;;;;;;;6.85;3.35;;;;;;;28.06;38.74;99934.16;4932737;29;20027;-87
2023/09/26 10:12:51;;;;;;;4.45;2.42;;;;;;;28.26;38.30;99938.75;4932457;29;20027;-87
2023/09/26 10:15:17;;;;;;;8.80;2.10;;;;;;;27.64;39.29;99943.84;4932790;29;20028;-87
2023/09/26 10:17:46;;;;;;;13.93;2.80;;;;;;;27.95;39.16;99941.34;4950603;29;20042;-86
2023/09/26 10:20:14;;;;;;;2.63;2.35;;;;;;;27.40;39.68;99929.63;4951135;29;20035;-85
2023/09/26 10:22:41;;;;;;;3.63;2.35;;;;;;;27.83;39.08;99996.53;4938775;29;20595;-83
2023/09/26 10:25:21;;;;;;;3.53;1.75;;;;;;;27.81;38.93;99966.00;4955114;29;20513;-82
2023/09/26 10:27:47;;;;;;;8.20;1.88;;;;;;;27.96;38.93;99953.91;4942881;29;20042;-84
2023/09/26 10:30:18;;;;;;;2.45;1.30;;;;;;;27.51;38.63;99913.34;4935555;29;20485;-83
2023/09/26 10:32:44;;;;;;;2.72;1.25;;;;;;;27.92;39.04;99968.66;4935790;29;20032;-81
2023/09/26 10:35:13;;;;;;;7.57;3.65;;;;;;;28.14;39.18;99967.75;4940048;29;20031;-82
2023/09/26 10:37:38;;;;;;;5.70;1.45;;;;;;;27.86;38.65;99936.66;4936502;29;20058;-84
2023/09/26 10:40:05;;;;;;;5.18;1.85;;;;;;;28.22;38.88;99926.41;4918824;29;20131;-83
2023/09/26 10:42:30;;;;;;;2.13;1.30;;;;;;;28.27;38.08;99907.03;4949019;29;20041;-84
2023/09/26 10:44:56;;;;;;;13.82;2.05;;;;;;;28.36;37.83;99884.56;4947314;29;20126;-83
2023/09/26 10:47:22;;;;;;;5.18;1.63;;;;;;;28.57;37.51;99896.25;4936347;29;20031;-82
2023/09/26 10:49:48;;;;;;;7.55;3.63;;;;;;;28.47;37.56;99883.63;4935573;29;20024;-82
2023/09/26 10:52:15;;;;;;;4.57;1.92;;;;;;;28.64;37.97;99912.03;4951987;29;20414;-83
2023/09/26 10:54:44;;;;;;;10.63;1.63;;;;;;;28.83;37.55;99911.28;4954685;29;20899;-85
2023/09/26 10:57:20;;;;;;;3.13;2.47;;;;;;;28.88;37.66;99909.88;4954193;29;20031;-83
2023/09/26 10:59:46;;;;;;;5.63;1.80;;;;;;;28.96;37.81;99911.06;4954189;29;20027;-85
2023/09/26 11:02:12;;;;;;;3.92;1.63;;;;;;;28.99;37.88;99919.78;4937212;29;20035;-89
2023/09/26 11:04:38;;;;;;;8.30;2.63;;;;;;;29.03;37.86;99887.81;4936059;29;20067;-89
2023/09/26 11:07:05;;;;;;;2.90;1.40;;;;;;;28.96;36.90;99887.47;4935344;29;20062;-86
2023/09/26 11:09:33;;;;;;;9.30;2.00;;;;;;;29.00;36.32;99928.81;4945749;29;20043;-83
2023/09/26 11:11:59;;;;;;;2.63;1.75;;;;;;;28.37;36.76;99906.13;4945385;29;20042;-90
2023/09/26 11:14:29;;;;;;;6.35;3.13;;;;;;;28.42;36.84;99908.44;4938706;29;20109;-89
2023/09/26 11:17:00;;;;;;;14.55;2.70;;;;;;;28.49;36.33;99876.22;4940632;29;20036;-87
2023/09/26 11:19:29;;;;;;;6.15;2.17;;;;;;;28.52;36.63;99914.78;4933974;29;20027;-87
2023/09/26 11:21:57;;;;;;;3.55;1.98;;;;;;;28.53;37.16;99900.25;4933898;29;20459;-87
2023/09/26 11:24:25;;;;;;;4.00;1.90;;;;;;;28.70;36.73;99898.81;4917732;29;20138;-86
2023/09/26 11:26:52;;;;;;;37.47;2.92;;;;;;;28.46;36.30;99880.06;4934361;29;20102;-88
2023/09/26 11:29:20;;;;;;;1.90;1.58;;;;;;;28.13;36.63;99873.84;4934804;29;20031;-90
2023/09/26 11:31:47;;;;;;;3.75;1.80;;;;;;;27.94;37.13;99881.81;4916430;29;20048;-87
2023/09/26 11:34:16;;;;;;;2.55;1.27;;;;;;;28.35;36.73;99902.69;4934519;29;20106;-87
2023/09/26 11:37:04;;;;;;;1.00;0.90;;;;;;;28.28;36.55;99879.78;4933476;29;20525;-90